Benxi, China
Current Conditions -  °F | °C
As of 6:00 PM on Tuesday 21 Oct 2014 (Local Time) from ZYTX Reporting Station
Clear Clear  
Wind Chill: 40°   Ceiling: Unl
Heat Index: 45°   Visibility: 6mi
Dew Point:   Wind: 9mph
Humidity: 15%   Direction: 360°N
Pressure: 30.24"   Gusts: NA
Location:  41.33°N, 123.75°E
Report Text: ZYTX 211000Z 36004MPS CAVOK 07/M18 Q1024 NOSIG
Loading
Personal Weather Stations






























Interactive Weather Map
Tropical Storm Tracking
New forecast layout! Learn more

10-Day Weather Forecast

Advertisements
Track Severe Weather on mobile